createdAt,value
2018-05-09T00:01:22.867Z,985.83
2018-05-09T00:02:22.758Z,985.87
2018-05-09T00:04:15.504Z,985.85
2018-05-09T00:05:15.426Z,985.88
2018-05-09T00:07:08.274Z,985.86
2018-05-09T00:08:08.155Z,985.88
2018-05-09T00:10:01.425Z,985.83
2018-05-09T00:11:01.334Z,985.82
2018-05-09T00:12:54.338Z,985.80
2018-05-09T00:13:54.073Z,985.78
2018-05-09T00:15:46.940Z,985.80
2018-05-09T00:16:46.812Z,985.79
2018-05-09T00:18:39.557Z,985.80
2018-05-09T00:19:39.458Z,985.79
2018-05-09T00:21:32.261Z,985.77
2018-05-09T00:22:32.119Z,985.76
2018-05-09T00:24:24.965Z,985.75
2018-05-09T00:25:24.757Z,985.75
2018-05-09T00:27:17.664Z,985.73
2018-05-09T00:28:17.418Z,985.75
2018-05-09T00:30:10.309Z,985.70
2018-05-09T00:31:10.158Z,985.71
2018-05-09T00:33:03.036Z,985.78
2018-05-09T00:34:02.896Z,985.72
2018-05-09T00:35:55.766Z,985.70
2018-05-09T00:36:55.687Z,985.65
2018-05-09T00:38:49.413Z,985.67
2018-05-09T00:39:49.320Z,985.69
2018-05-09T00:41:42.240Z,985.64
2018-05-09T00:42:42.069Z,985.69
2018-05-09T00:44:34.912Z,985.67
2018-05-09T00:45:34.817Z,985.71
2018-05-09T00:47:27.591Z,985.71
2018-05-09T00:48:27.481Z,985.77
2018-05-09T00:50:20.452Z,985.73
2018-05-09T00:51:20.247Z,985.70
2018-05-09T00:53:13.088Z,985.71
2018-05-09T00:54:12.998Z,985.71
2018-05-09T00:56:05.850Z,985.68
2018-05-09T00:57:05.723Z,985.65
2018-05-09T00:58:58.498Z,985.64
2018-05-09T00:59:58.399Z,985.61
2018-05-09T01:01:51.226Z,985.61
2018-05-09T01:02:51.130Z,985.60
2018-05-09T01:04:43.981Z,985.57
2018-05-09T01:05:43.769Z,985.57
2018-05-09T01:07:36.663Z,985.53
2018-05-09T01:08:36.522Z,985.52
2018-05-09T01:10:29.405Z,985.56
2018-05-09T01:11:29.294Z,985.50
2018-05-09T01:13:22.033Z,985.53
2018-05-09T01:14:21.937Z,985.54
2018-05-09T01:16:14.764Z,985.53
2018-05-09T01:17:14.661Z,985.55
2018-05-09T01:19:07.424Z,985.56
2018-05-09T01:20:07.320Z,985.55
2018-05-09T01:22:01.698Z,985.54
2018-05-09T01:23:00.066Z,985.52
2018-05-09T01:24:52.823Z,985.49
2018-05-09T01:25:52.698Z,985.55
2018-05-09T01:27:45.564Z,985.57
2018-05-09T01:28:45.450Z,985.55
2018-05-09T01:30:38.222Z,985.54
2018-05-09T01:31:38.143Z,985.51
2018-05-09T01:33:31.494Z,985.55
2018-05-09T01:34:30.857Z,985.47
2018-05-09T01:36:23.698Z,985.55
2018-05-09T01:37:23.493Z,985.56
2018-05-09T01:39:16.366Z,985.59
2018-05-09T01:40:16.248Z,985.59
2018-05-09T01:42:09.188Z,985.59
2018-05-09T01:43:09.088Z,985.60
2018-05-09T01:45:01.861Z,985.60
2018-05-09T01:46:01.742Z,985.56
2018-05-09T01:47:54.580Z,985.59
2018-05-09T01:48:54.498Z,985.52
2018-05-09T01:50:47.253Z,985.50
2018-05-09T01:51:47.167Z,985.53
2018-05-09T01:53:39.983Z,985.48
2018-05-09T01:54:39.898Z,985.41
2018-05-09T01:56:33.253Z,985.44
2018-05-09T01:57:33.660Z,985.38
2018-05-09T01:59:25.440Z,985.41
2018-05-09T02:00:25.289Z,985.45
2018-05-09T02:02:18.140Z,985.41
2018-05-09T02:03:18.034Z,985.37
2018-05-09T02:05:10.797Z,985.33
2018-05-09T02:06:10.721Z,985.31
2018-05-09T02:08:03.429Z,985.32
2018-05-09T02:09:03.322Z,985.34
2018-05-09T02:10:57.242Z,985.35
2018-05-09T02:11:57.121Z,985.32
2018-05-09T02:13:50.453Z,985.29
2018-05-09T02:14:49.865Z,985.29
2018-05-09T02:16:42.723Z,985.27
2018-05-09T02:17:42.669Z,985.30
2018-05-09T02:19:35.337Z,985.25
2018-05-09T02:20:35.253Z,985.24
2018-05-09T02:22:28.141Z,985.24
2018-05-09T02:23:27.997Z,985.24
2018-05-09T02:25:20.841Z,985.20
2018-05-09T02:26:20.767Z,985.18
2018-05-09T02:28:14.129Z,985.21
2018-05-09T02:29:13.501Z,985.16
2018-05-09T02:31:06.388Z,985.16
2018-05-09T02:32:06.253Z,985.13
2018-05-09T02:33:59.211Z,985.10
2018-05-09T02:34:59.099Z,985.12
2018-05-09T02:36:51.984Z,985.12
2018-05-09T02:37:51.866Z,985.10
2018-05-09T02:39:44.728Z,985.11
2018-05-09T02:40:44.597Z,985.10
2018-05-09T02:42:37.359Z,985.12
2018-05-09T02:43:37.275Z,985.16
2018-05-09T02:45:30.128Z,985.12
2018-05-09T02:46:29.997Z,985.10
2018-05-09T02:48:22.764Z,985.09
2018-05-09T02:49:22.645Z,985.10
2018-05-09T02:51:15.919Z,985.10
2018-05-09T02:52:15.817Z,985.06
2018-05-09T02:54:08.562Z,985.08
2018-05-09T02:55:08.450Z,985.08
2018-05-09T02:57:01.186Z,985.06
2018-05-09T02:58:01.133Z,985.08
2018-05-09T02:59:53.860Z,985.04
2018-05-09T03:00:53.752Z,985.00
2018-05-09T03:02:46.502Z,985.06
2018-05-09T03:03:46.403Z,985.06
2018-05-09T03:05:39.256Z,985.05
2018-05-09T03:06:39.159Z,985.07
2018-05-09T03:08:31.982Z,985.06
2018-05-09T03:09:31.781Z,985.01
2018-05-09T03:11:24.557Z,985.04
2018-05-09T03:12:24.452Z,985.01
2018-05-09T03:14:17.305Z,985.07
2018-05-09T03:15:17.191Z,985.09
2018-05-09T03:17:09.927Z,985.08
2018-05-09T03:18:09.846Z,985.03
2018-05-09T03:20:02.690Z,985.00
2018-05-09T03:21:02.573Z,985.03
2018-05-09T03:22:55.503Z,985.00
2018-05-09T03:23:55.326Z,985.01
2018-05-09T03:25:48.206Z,985.02
2018-05-09T03:26:48.118Z,985.03
2018-05-09T03:28:40.931Z,985.00
2018-05-09T03:29:40.745Z,985.00
2018-05-09T03:31:34.007Z,984.99
2018-05-09T03:32:33.909Z,985.00
2018-05-09T03:34:26.757Z,984.95
2018-05-09T03:35:26.655Z,984.99
2018-05-09T03:37:20.542Z,985.03
2018-05-09T03:38:20.529Z,985.00
2018-05-09T03:40:13.280Z,985.05
2018-05-09T03:41:13.174Z,985.02
2018-05-09T03:43:06.051Z,985.00
2018-05-09T03:44:05.927Z,985.02
2018-05-09T03:45:58.677Z,985.01
2018-05-09T03:46:58.581Z,984.99
2018-05-09T03:48:51.325Z,985.02
2018-05-09T03:49:51.225Z,985.03
2018-05-09T03:51:44.108Z,985.08
2018-05-09T03:52:43.963Z,985.02
2018-05-09T03:54:36.712Z,985.04
2018-05-09T03:55:36.629Z,985.05
2018-05-09T03:57:29.971Z,985.07
2018-05-09T03:58:29.761Z,985.08
2018-05-09T04:00:23.533Z,985.09
2018-05-09T04:01:23.434Z,985.09
2018-05-09T04:03:16.192Z,985.10
2018-05-09T04:04:16.085Z,985.11
2018-05-09T04:06:08.928Z,985.11
2018-05-09T04:07:08.861Z,985.10
2018-05-09T04:09:01.600Z,985.11
2018-05-09T04:10:01.477Z,985.08
2018-05-09T04:11:54.232Z,985.08
2018-05-09T04:12:54.119Z,985.11
2018-05-09T04:14:46.971Z,985.14
2018-05-09T04:15:46.772Z,985.15
2018-05-09T04:17:39.639Z,985.18
2018-05-09T04:18:39.526Z,985.24
2018-05-09T04:20:32.310Z,985.25
2018-05-09T04:21:32.203Z,985.27
2018-05-09T04:23:24.924Z,985.26
2018-05-09T04:24:24.824Z,985.22
2018-05-09T04:26:17.565Z,985.23
2018-05-09T04:27:17.550Z,985.23
2018-05-09T04:29:10.220Z,985.24
2018-05-09T04:30:10.122Z,985.17
2018-05-09T04:32:02.971Z,985.16
2018-05-09T04:33:02.873Z,985.18
2018-05-09T04:34:55.616Z,985.17
2018-05-09T04:35:55.518Z,985.19
2018-05-09T04:37:49.350Z,985.19
2018-05-09T04:38:48.245Z,985.19
2018-05-09T04:40:41.117Z,985.15
2018-05-09T04:41:41.002Z,985.18
2018-05-09T04:43:33.851Z,985.13
2018-05-09T04:44:33.767Z,985.10
2018-05-09T04:46:27.063Z,985.09
2018-05-09T04:47:26.967Z,985.09
2018-05-09T04:49:19.652Z,985.11
2018-05-09T04:50:19.551Z,985.06
2018-05-09T04:52:12.411Z,985.10
2018-05-09T04:53:12.310Z,985.10
2018-05-09T04:55:05.556Z,985.09
2018-05-09T04:56:05.455Z,985.13
2018-05-09T04:57:58.772Z,985.16
2018-05-09T04:58:58.627Z,985.17
2018-05-09T05:00:51.914Z,985.17
2018-05-09T05:01:51.785Z,985.18
2018-05-09T05:03:44.648Z,985.11
2018-05-09T05:04:44.573Z,985.13
2018-05-09T05:06:37.309Z,985.16
2018-05-09T05:07:37.191Z,985.12
2018-05-09T05:09:30.057Z,985.12
2018-05-09T05:10:29.931Z,985.15
2018-05-09T05:12:22.701Z,985.15
2018-05-09T05:13:22.594Z,985.17
2018-05-09T05:15:15.365Z,985.23
2018-05-09T05:16:15.237Z,985.22
2018-05-09T05:18:08.082Z,985.25
2018-05-09T05:19:07.982Z,985.26
2018-05-09T05:21:00.859Z,985.27
2018-05-09T05:22:00.727Z,985.28
2018-05-09T05:23:53.464Z,985.30
2018-05-09T05:24:53.391Z,985.28
2018-05-09T05:26:47.748Z,985.27
2018-05-09T05:27:47.571Z,985.26
2018-05-09T05:29:40.407Z,985.22
2018-05-09T05:30:40.304Z,985.21
2018-05-09T05:32:33.190Z,985.23
2018-05-09T05:33:33.089Z,985.22
2018-05-09T05:35:25.893Z,985.24
2018-05-09T05:36:25.794Z,985.21
2018-05-09T05:38:18.689Z,985.18
2018-05-09T05:39:18.596Z,985.20
2018-05-09T05:41:11.419Z,985.20
2018-05-09T05:42:11.326Z,985.21
2018-05-09T05:44:04.196Z,985.23
2018-05-09T05:45:04.193Z,985.26
2018-05-09T05:46:56.909Z,985.22
2018-05-09T05:47:56.810Z,985.23
2018-05-09T05:49:49.580Z,985.25
2018-05-09T05:50:49.456Z,985.28
2018-05-09T05:52:42.286Z,985.22
2018-05-09T05:53:42.187Z,985.25
2018-05-09T05:55:35.085Z,985.24
2018-05-09T05:56:34.946Z,985.22
2018-05-09T05:58:27.806Z,985.27
2018-05-09T05:59:27.686Z,985.23
2018-05-09T06:01:20.552Z,985.24
2018-05-09T06:02:20.447Z,985.22
2018-05-09T06:04:13.289Z,985.25
2018-05-09T06:05:13.206Z,985.23
2018-05-09T06:07:06.068Z,985.20
2018-05-09T06:08:05.944Z,985.21
2018-05-09T06:10:00.220Z,985.26
2018-05-09T06:11:00.123Z,985.30
2018-05-09T06:12:53.004Z,985.32
2018-05-09T06:13:52.876Z,985.35
2018-05-09T06:15:45.634Z,985.38
2018-05-09T06:16:45.536Z,985.37
2018-05-09T06:18:38.801Z,985.37
2018-05-09T06:19:38.681Z,985.38
2018-05-09T06:21:31.540Z,985.36
2018-05-09T06:22:31.440Z,985.37
2018-05-09T06:24:24.298Z,985.40
2018-05-09T06:25:24.191Z,985.41
2018-05-09T06:27:17.023Z,985.41
2018-05-09T06:28:16.927Z,985.42
2018-05-09T06:30:09.866Z,985.43
2018-05-09T06:31:09.685Z,985.46
2018-05-09T06:33:02.545Z,985.46
2018-05-09T06:34:02.427Z,985.52
2018-05-09T06:35:55.855Z,985.53
2018-05-09T06:36:55.721Z,985.58
2018-05-09T06:38:48.547Z,985.56
2018-05-09T06:39:48.465Z,985.58
2018-05-09T06:41:41.394Z,985.60
2018-05-09T06:42:41.212Z,985.57
2018-05-09T06:44:34.550Z,985.60
2018-05-09T06:45:34.479Z,985.57
2018-05-09T06:47:27.387Z,985.60
2018-05-09T06:48:27.303Z,985.62
2018-05-09T06:50:20.491Z,985.62
2018-05-09T06:51:19.949Z,985.60
2018-05-09T06:53:13.777Z,985.65
2018-05-09T06:54:13.624Z,985.65
2018-05-09T06:56:06.476Z,985.70
2018-05-09T06:57:06.393Z,985.70
2018-05-09T06:58:59.306Z,985.71
2018-05-09T06:59:59.210Z,985.72
2018-05-09T07:01:52.070Z,985.76
2018-05-09T07:02:51.992Z,985.76
2018-05-09T07:04:45.383Z,985.78
2018-05-09T07:05:44.742Z,985.78
2018-05-09T07:07:37.578Z,985.79
2018-05-09T07:08:37.477Z,985.77
2018-05-09T07:10:30.332Z,985.72
2018-05-09T07:11:30.229Z,985.71
2018-05-09T07:13:23.061Z,985.76
2018-05-09T07:14:22.975Z,985.73
2018-05-09T07:16:15.837Z,985.74
2018-05-09T07:17:15.772Z,985.72
2018-05-09T07:19:08.581Z,985.68
2018-05-09T07:20:08.483Z,985.72
2018-05-09T07:22:01.368Z,985.65
2018-05-09T07:23:01.223Z,985.67
2018-05-09T07:24:54.066Z,985.66
2018-05-09T07:25:53.970Z,985.70
2018-05-09T07:27:47.343Z,985.72
2018-05-09T07:28:47.233Z,985.71
2018-05-09T07:30:40.081Z,985.76
2018-05-09T07:31:39.984Z,985.74
2018-05-09T07:33:32.873Z,985.77
2018-05-09T07:34:32.728Z,985.78
2018-05-09T07:36:26.209Z,985.74
2018-05-09T07:37:26.020Z,985.75
2018-05-09T07:39:18.889Z,985.78
2018-05-09T07:40:18.768Z,985.77
2018-05-09T07:42:11.668Z,985.76
2018-05-09T07:43:11.518Z,985.76
2018-05-09T07:45:04.388Z,985.74
2018-05-09T07:46:04.245Z,985.80
2018-05-09T07:47:57.203Z,985.78
2018-05-09T07:48:56.993Z,985.79
2018-05-09T07:50:49.871Z,985.80
2018-05-09T07:51:49.769Z,985.80
2018-05-09T07:53:42.609Z,985.83
2018-05-09T07:54:42.509Z,985.88
2018-05-09T07:56:35.360Z,985.83
2018-05-09T07:57:35.242Z,985.86
2018-05-09T07:59:28.090Z,985.82
2018-05-09T08:00:28.023Z,985.82
2018-05-09T08:02:20.876Z,985.83
2018-05-09T08:03:20.782Z,985.82
2018-05-09T08:05:13.619Z,985.82
2018-05-09T08:06:13.495Z,985.77
2018-05-09T08:08:06.369Z,985.82
2018-05-09T08:09:06.248Z,985.77
2018-05-09T08:10:59.091Z,985.71
2018-05-09T08:11:59.000Z,985.72
2018-05-09T08:13:51.858Z,985.69
2018-05-09T08:14:51.749Z,985.70
2018-05-09T08:16:44.595Z,985.71
2018-05-09T08:17:44.498Z,985.71
2018-05-09T08:19:37.422Z,985.68
2018-05-09T08:20:37.236Z,985.72
2018-05-09T08:22:30.076Z,985.77
2018-05-09T08:23:29.987Z,985.78
2018-05-09T08:25:22.866Z,985.74
2018-05-09T08:26:22.761Z,985.71
2018-05-09T08:28:15.610Z,985.72
2018-05-09T08:29:15.497Z,985.73
2018-05-09T08:31:08.880Z,985.76
2018-05-09T08:32:08.754Z,985.76
2018-05-09T08:34:02.122Z,985.73
2018-05-09T08:35:02.039Z,985.70
2018-05-09T08:36:54.917Z,985.77
2018-05-09T08:37:54.766Z,985.72
2018-05-09T08:39:47.633Z,985.76
2018-05-09T08:40:47.526Z,985.77
2018-05-09T08:42:40.472Z,985.74
2018-05-09T08:43:40.378Z,985.75
2018-05-09T08:45:33.105Z,985.75
2018-05-09T08:46:33.042Z,985.72
2018-05-09T08:48:25.908Z,985.69
2018-05-09T08:49:25.906Z,985.70
2018-05-09T08:51:18.656Z,985.70
2018-05-09T08:52:18.525Z,985.70
2018-05-09T08:54:12.824Z,985.65
2018-05-09T08:55:12.705Z,985.68
2018-05-09T08:57:05.533Z,985.60
2018-05-09T08:58:05.461Z,985.61
2018-05-09T08:59:58.331Z,985.58
2018-05-09T09:00:58.198Z,985.55
2018-05-09T09:02:51.059Z,985.53
2018-05-09T09:03:50.948Z,985.52
2018-05-09T09:05:43.813Z,985.54
2018-05-09T09:06:43.716Z,985.55
2018-05-09T09:08:36.545Z,985.51
2018-05-09T09:09:36.452Z,985.51
2018-05-09T09:11:29.306Z,985.57
2018-05-09T09:12:29.226Z,985.58
2018-05-09T09:14:22.042Z,985.57
2018-05-09T09:15:22.016Z,985.59
2018-05-09T09:17:14.815Z,985.59
2018-05-09T09:18:14.701Z,985.63
2018-05-09T09:20:07.531Z,985.58
2018-05-09T09:21:07.448Z,985.63
2018-05-09T09:23:00.307Z,985.63
2018-05-09T09:24:00.212Z,985.67
2018-05-09T09:25:53.033Z,985.61
2018-05-09T09:26:52.951Z,985.60
2018-05-09T09:28:45.839Z,985.62
2018-05-09T09:29:45.736Z,985.62
2018-05-09T09:31:38.544Z,985.69
2018-05-09T09:32:38.448Z,985.66
2018-05-09T09:34:31.325Z,985.68
2018-05-09T09:35:31.189Z,985.66
2018-05-09T09:37:24.097Z,985.61
2018-05-09T09:38:23.978Z,985.62
2018-05-09T09:40:16.846Z,985.63
2018-05-09T09:41:16.698Z,985.65
2018-05-09T09:43:09.522Z,985.60
2018-05-09T09:44:09.454Z,985.52
2018-05-09T09:46:02.301Z,985.48
2018-05-09T09:47:02.190Z,985.54
2018-05-09T09:48:55.020Z,985.50
2018-05-09T09:49:54.971Z,985.52
2018-05-09T09:51:47.831Z,985.50
2018-05-09T09:52:47.697Z,985.50
2018-05-09T09:54:40.562Z,985.49
2018-05-09T09:55:40.438Z,985.49
2018-05-09T09:57:33.340Z,985.49
2018-05-09T09:58:33.197Z,985.48
2018-05-09T10:00:26.034Z,985.49
2018-05-09T10:01:26.014Z,985.50
2018-05-09T10:03:18.827Z,985.46
2018-05-09T10:04:18.736Z,985.45
2018-05-09T10:06:11.524Z,985.45
2018-05-09T10:07:11.439Z,985.47
2018-05-09T10:09:04.734Z,985.43
2018-05-09T10:10:04.605Z,985.41
2018-05-09T10:11:57.441Z,985.43
2018-05-09T10:12:57.368Z,985.43
2018-05-09T10:14:50.246Z,985.36
2018-05-09T10:15:50.125Z,985.44
2018-05-09T10:17:42.942Z,985.36
2018-05-09T10:18:42.847Z,985.36
2018-05-09T10:20:35.808Z,985.35
2018-05-09T10:21:35.599Z,985.32
2018-05-09T10:23:28.968Z,985.29
2018-05-09T10:24:28.773Z,985.27
2018-05-09T10:26:21.606Z,985.27
2018-05-09T10:27:21.559Z,985.26
2018-05-09T10:29:14.353Z,985.25
2018-05-09T10:30:14.273Z,985.23
2018-05-09T10:32:07.167Z,985.23
2018-05-09T10:33:07.013Z,985.24
2018-05-09T10:35:00.864Z,985.22
2018-05-09T10:36:00.801Z,985.21
2018-05-09T10:37:53.631Z,985.23
2018-05-09T10:38:53.541Z,985.25
2018-05-09T10:40:46.399Z,985.17
2018-05-09T10:41:46.287Z,985.21
2018-05-09T10:43:39.122Z,985.17
2018-05-09T10:44:39.027Z,985.21
2018-05-09T10:46:31.905Z,985.21
2018-05-09T10:47:31.830Z,985.23
2018-05-09T10:49:25.047Z,985.17
2018-05-09T10:50:24.942Z,985.18
2018-05-09T10:52:17.792Z,985.17
2018-05-09T10:53:17.694Z,985.15
2018-05-09T10:55:10.523Z,985.21
2018-05-09T10:56:10.449Z,985.15
2018-05-09T10:58:03.301Z,985.02
2018-05-09T10:59:03.202Z,985.10
2018-05-09T11:00:56.028Z,985.02
2018-05-09T11:01:55.951Z,984.95
2018-05-09T11:03:48.782Z,984.96
2018-05-09T11:04:48.682Z,984.95
2018-05-09T11:06:41.538Z,984.90
2018-05-09T11:07:41.435Z,984.91
2018-05-09T11:09:34.344Z,984.93
2018-05-09T11:10:34.291Z,984.94
2018-05-09T11:12:27.050Z,984.95
2018-05-09T11:13:26.940Z,985.01
2018-05-09T11:15:19.771Z,985.02
2018-05-09T11:16:19.685Z,984.96
2018-05-09T11:18:12.535Z,984.90
2018-05-09T11:19:12.433Z,984.92
2018-05-09T11:21:05.294Z,984.92
2018-05-09T11:22:05.223Z,984.98
2018-05-09T11:24:01.181Z,984.91
2018-05-09T11:25:01.131Z,984.92
2018-05-09T11:26:54.866Z,984.88
2018-05-09T11:27:54.785Z,984.85
2018-05-09T11:29:47.656Z,984.87
2018-05-09T11:30:47.532Z,984.87
2018-05-09T11:32:40.375Z,984.83
2018-05-09T11:33:40.304Z,984.80
2018-05-09T11:35:33.141Z,984.88
2018-05-09T11:36:33.026Z,984.89
2018-05-09T11:38:25.860Z,984.85
2018-05-09T11:39:25.774Z,984.83
2018-05-09T11:41:18.624Z,984.79
2018-05-09T11:42:18.526Z,984.75
2018-05-09T11:44:11.898Z,984.80
2018-05-09T11:45:11.792Z,984.81
2018-05-09T11:47:04.652Z,984.81
2018-05-09T11:48:04.554Z,984.81
2018-05-09T11:49:58.426Z,984.74
2018-05-09T11:50:58.489Z,984.70
2018-05-09T11:52:51.186Z,984.72
2018-05-09T11:53:51.064Z,984.67
2018-05-09T11:55:43.910Z,984.67
2018-05-09T11:56:43.810Z,984.66
2018-05-09T11:58:36.639Z,984.63
2018-05-09T11:59:36.551Z,984.64
2018-05-09T12:01:29.408Z,984.59
2018-05-09T12:02:29.386Z,984.58
2018-05-09T12:04:22.141Z,984.57
2018-05-09T12:05:22.062Z,984.61
2018-05-09T12:07:15.437Z,984.55
2018-05-09T12:08:14.937Z,984.55
2018-05-09T12:10:07.739Z,984.54
2018-05-09T12:11:07.665Z,984.50
2018-05-09T12:13:00.511Z,984.52
2018-05-09T12:14:00.413Z,984.54
2018-05-09T12:15:53.240Z,984.48
2018-05-09T12:16:53.196Z,984.49
2018-05-09T12:18:46.113Z,984.47
2018-05-09T12:19:46.009Z,984.45
2018-05-09T12:21:38.896Z,984.56
2018-05-09T12:22:38.790Z,984.46
2018-05-09T12:24:31.632Z,984.47
2018-05-09T12:25:31.509Z,984.52
2018-05-09T12:27:24.374Z,984.49
2018-05-09T12:28:24.262Z,984.42
2018-05-09T12:30:17.097Z,984.44
2018-05-09T12:31:17.021Z,984.42
2018-05-09T12:33:09.858Z,984.45
2018-05-09T12:34:09.771Z,984.53
2018-05-09T12:36:02.621Z,984.43
2018-05-09T12:37:02.511Z,984.48
2018-05-09T12:38:55.362Z,984.46
2018-05-09T12:39:55.262Z,984.46
2018-05-09T12:41:48.105Z,984.40
2018-05-09T12:42:48.021Z,984.43
2018-05-09T12:44:40.863Z,984.36
2018-05-09T12:45:40.764Z,984.36
2018-05-09T12:47:33.601Z,984.31
2018-05-09T12:48:33.547Z,984.22
2018-05-09T12:50:26.361Z,984.24
2018-05-09T12:51:26.268Z,984.29
2018-05-09T12:53:19.102Z,984.20
2018-05-09T12:54:19.021Z,984.27
2018-05-09T12:56:11.886Z,984.27
2018-05-09T12:57:11.790Z,984.25
2018-05-09T12:59:04.591Z,984.20
2018-05-09T13:00:04.505Z,984.21
2018-05-09T13:01:57.356Z,984.16
2018-05-09T13:02:57.254Z,984.16
2018-05-09T13:04:50.103Z,984.18
2018-05-09T13:05:50.025Z,984.10
2018-05-09T13:07:42.848Z,984.13
2018-05-09T13:08:42.756Z,984.09
2018-05-09T13:10:35.602Z,984.07
2018-05-09T13:11:35.506Z,984.14
2018-05-09T13:13:28.337Z,984.04
2018-05-09T13:14:28.263Z,984.04
2018-05-09T13:16:21.200Z,984.12
2018-05-09T13:17:21.131Z,984.13
2018-05-09T13:19:13.939Z,984.05
2018-05-09T13:20:13.871Z,984.00
2018-05-09T13:22:06.710Z,983.95
2018-05-09T13:23:06.621Z,983.95
2018-05-09T13:24:59.554Z,983.84
2018-05-09T13:25:59.459Z,983.89
2018-05-09T13:27:52.302Z,983.90
2018-05-09T13:28:52.214Z,983.89
2018-05-09T13:30:45.145Z,983.87
2018-05-09T13:31:45.103Z,983.83
2018-05-09T13:33:37.927Z,983.82
2018-05-09T13:34:37.818Z,983.77
2018-05-09T13:36:30.765Z,983.80
2018-05-09T13:37:30.677Z,983.73
2018-05-09T13:39:23.512Z,983.72
2018-05-09T13:40:23.418Z,983.74
2018-05-09T13:42:16.295Z,983.72
2018-05-09T13:43:16.168Z,983.68
2018-05-09T13:45:08.999Z,983.74
2018-05-09T13:46:09.016Z,983.69
2018-05-09T13:48:01.770Z,983.73
2018-05-09T13:49:01.667Z,983.73
2018-05-09T13:50:54.518Z,983.66
2018-05-09T13:51:54.429Z,983.69
2018-05-09T13:53:47.297Z,983.59
2018-05-09T13:54:47.152Z,983.56
2018-05-09T13:56:40.027Z,983.54
2018-05-09T13:57:39.912Z,983.53
2018-05-09T13:59:32.751Z,983.55
2018-05-09T14:00:32.671Z,983.52
2018-05-09T14:02:25.549Z,983.45
2018-05-09T14:03:25.406Z,983.51
2018-05-09T14:05:18.355Z,983.35
2018-05-09T14:06:18.255Z,983.40
2018-05-09T14:08:11.126Z,983.41
2018-05-09T14:09:11.004Z,983.45
2018-05-09T14:11:03.852Z,983.39
2018-05-09T14:12:03.771Z,983.37
2018-05-09T14:13:56.602Z,983.41
2018-05-09T14:14:56.526Z,983.33
2018-05-09T14:16:49.340Z,983.36
2018-05-09T14:17:49.291Z,983.35
2018-05-09T14:19:42.117Z,983.29
2018-05-09T14:20:42.010Z,983.35
2018-05-09T14:22:34.872Z,983.26
2018-05-09T14:23:34.755Z,983.25
2018-05-09T14:25:27.704Z,983.27
2018-05-09T14:26:27.513Z,983.18
2018-05-09T14:28:20.502Z,983.24
2018-05-09T14:29:20.260Z,983.34
2018-05-09T14:31:13.125Z,983.26
2018-05-09T14:32:13.016Z,983.25
2018-05-09T14:34:05.854Z,983.22
2018-05-09T14:35:05.753Z,983.27
2018-05-09T14:36:58.629Z,983.24
2018-05-09T14:37:58.501Z,983.22
2018-05-09T14:39:51.333Z,983.16
2018-05-09T14:40:51.252Z,983.13
2018-05-09T14:42:44.131Z,983.14
2018-05-09T14:43:44.018Z,983.13
2018-05-09T14:45:36.862Z,983.09
2018-05-09T14:46:36.757Z,983.03
2018-05-09T14:48:29.610Z,983.07
2018-05-09T14:49:29.510Z,983.04
2018-05-09T14:51:22.378Z,983.07
2018-05-09T14:52:22.262Z,983.05
2018-05-09T14:54:15.094Z,983.09
2018-05-09T14:55:15.017Z,983.03
2018-05-09T14:57:07.849Z,982.97
2018-05-09T14:58:07.753Z,983.04
2018-05-09T15:00:00.621Z,982.99
2018-05-09T15:01:00.498Z,983.05
2018-05-09T15:02:53.385Z,983.00
2018-05-09T15:03:53.266Z,983.01
2018-05-09T15:05:46.241Z,982.98
2018-05-09T15:06:46.015Z,983.04
2018-05-09T15:08:38.940Z,982.99
2018-05-09T15:09:38.762Z,983.04
2018-05-09T15:11:31.578Z,983.07
2018-05-09T15:12:31.494Z,983.07
2018-05-09T15:14:24.344Z,983.10
2018-05-09T15:15:24.256Z,983.04
2018-05-09T15:17:17.108Z,983.09
2018-05-09T15:18:16.997Z,983.10
2018-05-09T15:20:09.848Z,983.08
2018-05-09T15:21:09.754Z,983.02
2018-05-09T15:23:03.148Z,983.02
2018-05-09T15:24:02.601Z,982.95
2018-05-09T15:25:55.461Z,982.99
2018-05-09T15:26:55.369Z,982.98
2018-05-09T15:28:48.211Z,982.97
2018-05-09T15:29:48.125Z,982.95
2018-05-09T15:31:40.949Z,982.98
2018-05-09T15:32:40.868Z,982.97
2018-05-09T15:34:33.711Z,982.98
2018-05-09T15:35:33.605Z,982.98
2018-05-09T15:37:26.462Z,983.01
2018-05-09T15:38:26.359Z,982.97
2018-05-09T15:40:19.298Z,983.05
2018-05-09T15:41:19.107Z,982.97
2018-05-09T15:43:11.929Z,982.94
2018-05-09T15:44:11.847Z,982.97
2018-05-09T15:46:04.810Z,982.96
2018-05-09T15:47:04.698Z,982.97
2018-05-09T15:48:57.556Z,982.93
2018-05-09T15:49:57.463Z,982.93
2018-05-09T15:51:50.285Z,983.03
2018-05-09T15:52:50.194Z,983.04
2018-05-09T15:54:43.599Z,983.09
2018-05-09T15:55:43.462Z,983.07
2018-05-09T15:57:36.316Z,983.08
2018-05-09T15:58:36.215Z,983.01
2018-05-09T16:00:29.080Z,983.09
2018-05-09T16:01:28.957Z,983.11
2018-05-09T16:03:21.791Z,983.06
2018-05-09T16:04:21.715Z,983.14
2018-05-09T16:06:14.612Z,983.01
2018-05-09T16:07:14.472Z,983.09
2018-05-09T16:09:07.288Z,983.18
2018-05-09T16:10:07.228Z,983.12
2018-05-09T16:12:00.080Z,983.05
2018-05-09T16:12:59.967Z,983.18
2018-05-09T16:14:52.792Z,983.18
2018-05-09T16:15:52.724Z,982.93
2018-05-09T16:17:45.574Z,983.15
2018-05-09T16:18:45.630Z,983.17
2018-05-09T16:20:38.295Z,983.19
2018-05-09T16:21:38.213Z,983.15
2018-05-09T16:23:31.045Z,983.10
2018-05-09T16:24:30.964Z,983.07
2018-05-09T16:26:23.924Z,983.00
2018-05-09T16:27:23.747Z,983.04
2018-05-09T16:29:16.546Z,983.04
2018-05-09T16:30:16.483Z,983.04
2018-05-09T16:32:09.306Z,983.03
2018-05-09T16:33:09.215Z,983.00
2018-05-09T16:35:02.176Z,983.02
2018-05-09T16:36:02.077Z,983.05
2018-05-09T16:37:54.919Z,983.06
2018-05-09T16:38:54.845Z,983.08
2018-05-09T16:40:47.639Z,983.03
2018-05-09T16:41:47.593Z,982.99
2018-05-09T16:43:40.448Z,983.01
2018-05-09T16:44:40.321Z,983.03
2018-05-09T16:46:33.140Z,983.02
2018-05-09T16:47:33.073Z,983.03
2018-05-09T16:49:25.918Z,983.03
2018-05-09T16:50:25.821Z,983.06
2018-05-09T16:52:18.647Z,983.09
2018-05-09T16:53:18.654Z,983.06
2018-05-09T16:55:12.014Z,983.03
2018-05-09T16:56:11.925Z,983.06
2018-05-09T16:58:04.756Z,983.09
2018-05-09T16:59:04.711Z,983.03
2018-05-09T17:00:57.537Z,983.10
2018-05-09T17:01:57.425Z,983.02
2018-05-09T17:03:50.333Z,983.04
2018-05-09T17:04:50.195Z,983.05
2018-05-09T17:06:42.997Z,983.07
2018-05-09T17:07:42.941Z,983.05
2018-05-09T17:09:35.784Z,983.05
2018-05-09T17:10:35.673Z,983.02
2018-05-09T17:12:28.510Z,983.05
2018-05-09T17:13:28.431Z,983.01
2018-05-09T17:15:21.261Z,983.04
2018-05-09T17:16:21.177Z,983.08
2018-05-09T17:18:14.031Z,983.10
2018-05-09T17:19:13.953Z,983.05
2018-05-09T17:21:06.819Z,983.08
2018-05-09T17:22:06.682Z,983.04
2018-05-09T17:24:00.013Z,983.04
2018-05-09T17:24:59.941Z,983.06
2018-05-09T17:26:52.785Z,983.02
2018-05-09T17:27:52.713Z,983.02
2018-05-09T17:29:45.525Z,983.03
2018-05-09T17:30:45.495Z,983.01
2018-05-09T17:32:38.300Z,983.01
2018-05-09T17:33:38.188Z,983.00
2018-05-09T17:35:31.148Z,982.99
2018-05-09T17:36:31.040Z,982.97
2018-05-09T17:38:23.870Z,982.94
2018-05-09T17:39:23.799Z,982.94
2018-05-09T17:41:16.640Z,982.94
2018-05-09T17:42:16.546Z,982.90
2018-05-09T17:44:09.371Z,982.84
2018-05-09T17:45:09.286Z,982.80
2018-05-09T17:47:02.149Z,982.84
2018-05-09T17:48:02.061Z,982.85
2018-05-09T17:49:54.906Z,982.85
2018-05-09T17:50:54.792Z,982.89
2018-05-09T17:52:47.623Z,982.86
2018-05-09T17:53:47.541Z,982.86
2018-05-09T17:55:40.363Z,982.85
2018-05-09T17:56:40.285Z,982.79
2018-05-09T17:58:33.164Z,982.62